Time;durP1;ratioP1;P1;durP2;ratioP2;P2;SDS_P1;SDS_P2;PMS_P1;PMS_P2;Temp;Humidity;BMP_temperature;BMP_pressure;BME280_temperature;BME280_humidity;BME280_pressure;Samples;Min_cycle;Max_cycle;Signal;HPM_P1;HPM_P2
2022/03/13 00:00:54;;;;;;;;;;;7.90;71.30;;;;;;5084731;28;20601;-69
2022/03/13 00:03:21;;;;;;;;;;;7.90;71.40;;;;;;5071893;28;20405;-69
2022/03/13 00:05:48;;;;;;;;;;;7.90;71.30;;;;;;5075836;28;19915;-69
2022/03/13 00:08:24;;;;;;;;;;;7.90;71.30;;;;;;5085702;28;20570;-69
2022/03/13 00:10:56;;;;;;;;;;;7.80;71.40;;;;;;5068813;28;19952;-69
2022/03/13 00:13:24;;;;;;;;;;;7.80;71.40;;;;;;5086584;28;19912;-69
2022/03/13 00:15:52;;;;;;;;;;;7.80;71.40;;;;;;5087989;28;19908;-69
2022/03/13 00:18:20;;;;;;;;;;;7.80;71.50;;;;;;5087323;28;19912;-69
2022/03/13 00:20:46;;;;;;;;;;;7.80;71.30;;;;;;5069853;28;19970;-70
2022/03/13 00:23:12;;;;;;;;;;;7.80;71.30;;;;;;5085085;28;19909;-69
2022/03/13 00:25:38;;;;;;;;;;;7.80;71.40;;;;;;5093746;28;19912;-69
2022/03/13 00:28:04;;;;;;;;;;;7.70;71.40;;;;;;5066036;28;20582;-69
2022/03/13 00:30:29;;;;;;;;;;;7.80;71.50;;;;;;5083707;28;20271;-69
2022/03/13 00:32:55;;;;;;;;;;;7.70;71.50;;;;;;5077633;28;19912;-69
2022/03/13 00:35:20;;;;;;;;;;;7.70;71.50;;;;;;5087921;28;19958;-69
2022/03/13 00:37:46;;;;;;;;;;;7.70;71.50;;;;;;5086152;28;19947;-69
2022/03/13 00:40:12;;;;;;;;;;;7.70;71.60;;;;;;5074719;28;19912;-69
2022/03/13 00:42:38;;;;;;;;;;;7.70;71.50;;;;;;5085743;28;19935;-69
2022/03/13 00:45:04;;;;;;;;;;;7.70;71.50;;;;;;5086738;28;20439;-69
2022/03/13 00:47:29;;;;;;;;;;;7.60;71.30;;;;;;5085311;28;20399;-69
2022/03/13 00:49:55;;;;;;;;;;;7.70;71.60;;;;;;5084126;28;19912;-69
2022/03/13 00:52:20;;;;;;;;;;;7.60;71.50;;;;;;5069222;28;20325;-69
2022/03/13 00:54:46;;;;;;;;;;;7.60;71.50;;;;;;5084927;28;19963;-69
2022/03/13 00:57:11;;;;;;;;;;;7.60;71.40;;;;;;5073670;28;19920;-69
2022/03/13 00:59:37;;;;;;;;;;;7.60;71.50;;;;;;5081757;28;19912;-69
2022/03/13 01:02:03;;;;;;;;;;;7.60;71.40;;;;;;5084144;28;19916;-69
2022/03/13 01:04:28;;;;;;;;;;;7.60;71.50;;;;;;5084681;28;19916;-69
2022/03/13 01:06:54;;;;;;;;;;;7.50;71.30;;;;;;5086960;28;19908;-69
2022/03/13 01:09:19;;;;;;;;;;;7.50;71.20;;;;;;5086361;28;19943;-69
2022/03/13 01:11:45;;;;;;;;;;;7.50;71.10;;;;;;5086059;28;20425;-69
2022/03/13 01:14:11;;;;;;;;;;;7.50;71.30;;;;;;5083922;28;20363;-69
2022/03/13 01:16:39;;;;;;;;;;;7.50;71.30;;;;;;5073521;28;19912;-69
2022/03/13 01:19:05;;;;;;;;;;;7.50;71.40;;;;;;5084291;28;19916;-69
2022/03/13 01:21:32;;;;;;;;;;;7.50;71.20;;;;;;5085622;28;20241;-69
2022/03/13 01:24:01;;;;;;;;;;;7.50;71.10;;;;;;5071038;28;19916;-69
2022/03/13 01:26:28;;;;;;;;;;;7.50;71.30;;;;;;5085800;28;19923;-69
2022/03/13 01:28:57;;;;;;;;;;;7.50;71.30;;;;;;5068412;28;19908;-69
2022/03/13 01:31:27;;;;;;;;;;;7.40;71.30;;;;;;5083038;28;19908;-69
2022/03/13 01:33:53;;;;;;;;;;;7.40;71.30;;;;;;5083883;28;19920;-69
2022/03/13 01:36:18;;;;;;;;;;;7.40;71.30;;;;;;5085907;28;20515;-69
2022/03/13 01:38:44;;;;;;;;;;;7.40;71.30;;;;;;5086303;28;19908;-69
2022/03/13 01:41:09;;;;;;;;;;;7.40;71.40;;;;;;5085220;28;19984;-69
2022/03/13 01:43:35;;;;;;;;;;;7.40;71.40;;;;;;5084046;28;19927;-69
2022/03/13 01:46:01;;;;;;;;;;;7.30;71.30;;;;;;5069654;28;19911;-69
2022/03/13 01:48:27;;;;;;;;;;;7.40;71.40;;;;;;5066770;28;19998;-69
2022/03/13 01:50:53;;;;;;;;;;;7.30;71.30;;;;;;5084699;28;19991;-69
2022/03/13 01:53:21;;;;;;;;;;;7.30;71.40;;;;;;5070571;28;19915;-69
2022/03/13 01:55:49;;;;;;;;;;;7.30;71.30;;;;;;5086157;28;19920;-69
2022/03/13 01:58:15;;;;;;;;;;;7.30;71.30;;;;;;5067825;28;19969;-69
2022/03/13 02:00:41;;;;;;;;;;;7.30;71.30;;;;;;5082502;28;19909;-69
2022/03/13 02:03:07;;;;;;;;;;;7.20;71.20;;;;;;5082468;28;19960;-69
2022/03/13 02:05:34;;;;;;;;;;;7.20;71.30;;;;;;5083278;28;19919;-69
2022/03/13 02:08:04;;;;;;;;;;;7.30;71.40;;;;;;5082445;28;19908;-69
2022/03/13 02:10:30;;;;;;;;;;;7.20;71.20;;;;;;5070661;28;20551;-69
2022/03/13 02:12:56;;;;;;;;;;;7.20;71.20;;;;;;5083929;28;19912;-69
2022/03/13 02:15:22;;;;;;;;;;;7.20;71.20;;;;;;5084148;28;19915;-69
2022/03/13 02:17:48;;;;;;;;;;;7.20;71.30;;;;;;5082104;28;20437;-69
2022/03/13 02:20:14;;;;;;;;;;;7.20;71.20;;;;;;5084580;28;20029;-69
2022/03/13 02:22:44;;;;;;;;;;;7.20;71.10;;;;;;5083918;28;19908;-69
2022/03/13 02:25:16;;;;;;;;;;;7.10;71.00;;;;;;5081817;28;19912;-69
2022/03/13 02:27:42;;;;;;;;;;;7.10;71.30;;;;;;5068398;28;19916;-69
2022/03/13 02:30:08;;;;;;;;;;;7.10;70.90;;;;;;5084912;28;20151;-69
2022/03/13 02:32:34;;;;;;;;;;;7.10;71.00;;;;;;5084521;28;19908;-69
2022/03/13 02:34:59;;;;;;;;;;;7.10;71.10;;;;;;5088154;28;19913;-69
2022/03/13 02:37:36;;;;;;;;;;;7.10;71.00;;;;;;5081503;28;19912;-69
2022/03/13 02:40:02;;;;;;;;;;;7.10;70.90;;;;;;5081942;28;19966;-69
2022/03/13 02:42:27;;;;;;;;;;;7.10;71.00;;;;;;5084886;28;20011;-69
2022/03/13 02:44:53;;;;;;;;;;;7.00;70.90;;;;;;5084237;28;19932;-69
2022/03/13 02:47:18;;;;;;;;;;;7.10;70.90;;;;;;5083010;28;19943;-69
2022/03/13 02:49:44;;;;;;;;;;;7.00;70.90;;;;;;5080877;28;19919;-69
2022/03/13 02:52:09;;;;;;;;;;;7.00;70.90;;;;;;5073111;28;19958;-69
2022/03/13 02:54:35;;;;;;;;;;;7.00;70.90;;;;;;5084031;28;19968;-69
2022/03/13 02:57:01;;;;;;;;;;;7.00;70.70;;;;;;5083319;28;20018;-69
2022/03/13 02:59:27;;;;;;;;;;;7.00;70.60;;;;;;5085128;28;19931;-69
2022/03/13 03:01:53;;;;;;;;;;;7.00;70.60;;;;;;5081479;28;19916;-69
2022/03/13 03:04:20;;;;;;;;;;;6.90;70.60;;;;;;5083897;28;19916;-69
2022/03/13 03:06:59;;;;;;;;;;;6.90;70.70;;;;;;5084884;28;19927;-69
2022/03/13 03:09:26;;;;;;;;;;;6.90;70.70;;;;;;5083918;28;19954;-69
2022/03/13 03:11:51;;;;;;;;;;;6.90;70.70;;;;;;5072267;28;19939;-69
2022/03/13 03:14:18;;;;;;;;;;;6.90;70.80;;;;;;5082775;28;20084;-69
2022/03/13 03:16:44;;;;;;;;;;;6.90;70.70;;;;;;5084030;28;19919;-69
2022/03/13 03:19:09;;;;;;;;;;;6.90;70.70;;;;;;5070416;28;19909;-69
2022/03/13 03:21:38;;;;;;;;;;;6.90;70.80;;;;;;5084978;28;20606;-69
2022/03/13 03:24:09;;;;;;;;;;;6.90;70.70;;;;;;5082087;28;20602;-69
2022/03/13 03:26:36;;;;;;;;;;;6.90;70.70;;;;;;5083858;28;19912;-69
2022/03/13 03:29:03;;;;;;;;;;;6.80;70.70;;;;;;5087448;28;19916;-69
2022/03/13 03:31:28;;;;;;;;;;;6.80;70.70;;;;;;5085207;28;19920;-69
2022/03/13 03:33:54;;;;;;;;;;;6.80;70.60;;;;;;5067905;28;19930;-69
2022/03/13 03:36:19;;;;;;;;;;;6.80;70.60;;;;;;5086586;28;19919;-69
2022/03/13 03:38:45;;;;;;;;;;;6.80;70.40;;;;;;5086953;28;19919;-69
2022/03/13 03:41:11;;;;;;;;;;;6.80;70.30;;;;;;5085371;28;19912;-69
2022/03/13 03:43:36;;;;;;;;;;;6.80;70.30;;;;;;5087037;28;19919;-69
2022/03/13 03:46:02;;;;;;;;;;;6.70;70.20;;;;;;5086653;28;20731;-69
2022/03/13 03:48:27;;;;;;;;;;;6.70;70.40;;;;;;5084690;28;19915;-69
2022/03/13 03:50:53;;;;;;;;;;;6.70;70.50;;;;;;5086178;28;20003;-69
2022/03/13 03:53:18;;;;;;;;;;;6.70;70.40;;;;;;5088125;28;20394;-69
2022/03/13 03:55:44;;;;;;;;;;;6.70;70.40;;;;;;5086320;28;20003;-69
2022/03/13 03:58:09;;;;;;;;;;;6.70;70.40;;;;;;5084840;28;19931;-69
2022/03/13 04:00:35;;;;;;;;;;;6.70;70.40;;;;;;5084618;28;19912;-69
2022/03/13 04:03:00;;;;;;;;;;;6.70;70.30;;;;;;5085163;28;19978;-69
2022/03/13 04:05:26;;;;;;;;;;;6.60;70.30;;;;;;5085248;28;20372;-69
2022/03/13 04:07:51;;;;;;;;;;;6.60;70.30;;;;;;5088225;28;20709;-69
2022/03/13 04:10:17;;;;;;;;;;;6.60;70.30;;;;;;5085734;28;19916;-69
2022/03/13 04:12:42;;;;;;;;;;;6.60;70.30;;;;;;5085850;28;19916;-69
2022/03/13 04:15:08;;;;;;;;;;;6.60;70.20;;;;;;5086298;28;19913;-69
2022/03/13 04:17:35;;;;;;;;;;;6.60;70.20;;;;;;5087050;28;20364;-69
2022/03/13 04:20:00;;;;;;;;;;;6.60;70.30;;;;;;5084363;28;19915;-69
2022/03/13 04:22:27;;;;;;;;;;;6.50;70.10;;;;;;5085272;28;20059;-69
2022/03/13 04:24:53;;;;;;;;;;;6.50;70.10;;;;;;5085443;28;19955;-69
2022/03/13 04:27:18;;;;;;;;;;;6.50;70.20;;;;;;5085533;28;19966;-69
2022/03/13 04:29:44;;;;;;;;;;;6.50;70.20;;;;;;5085974;28;20291;-69
2022/03/13 04:32:10;;;;;;;;;;;6.50;70.20;;;;;;5085421;28;21044;-69
2022/03/13 04:34:36;;;;;;;;;;;6.50;70.20;;;;;;5086185;28;19913;-69
2022/03/13 04:37:01;;;;;;;;;;;6.50;70.20;;;;;;5085005;28;20024;-69
2022/03/13 04:39:28;;;;;;;;;;;6.40;70.00;;;;;;5083806;28;19940;-69
2022/03/13 04:41:54;;;;;;;;;;;6.40;70.10;;;;;;5086232;28;19916;-69
2022/03/13 04:44:20;;;;;;;;;;;6.40;70.10;;;;;;5072467;28;19923;-69
2022/03/13 04:46:45;;;;;;;;;;;6.40;70.10;;;;;;5087487;28;19916;-69
2022/03/13 04:49:11;;;;;;;;;;;6.40;70.10;;;;;;5084491;28;19965;-69
2022/03/13 04:51:39;;;;;;;;;;;6.40;70.00;;;;;;5081520;28;19935;-69
2022/03/13 04:54:05;;;;;;;;;;;6.40;70.70;;;;;;5085751;28;19912;-69
2022/03/13 04:56:32;;;;;;;;;;;6.40;70.00;;;;;;5085212;28;19916;-69
2022/03/13 04:58:57;;;;;;;;;;;6.30;69.90;;;;;;5076377;28;20670;-69
2022/03/13 05:01:23;;;;;;;;;;;6.30;69.90;;;;;;5085620;28;20011;-69
2022/03/13 05:03:49;;;;;;;;;;;6.30;69.80;;;;;;5085595;28;19977;-69
2022/03/13 05:06:14;;;;;;;;;;;6.30;69.90;;;;;;5085439;28;19908;-69
2022/03/13 05:08:40;;;;;;;;;;;6.30;69.80;;;;;;5085375;28;20768;-69
2022/03/13 05:11:05;;;;;;;;;;;6.30;69.80;;;;;;5069000;28;19912;-69
2022/03/13 05:13:31;;;;;;;;;;;6.30;69.70;;;;;;5085580;28;20382;-69
2022/03/13 05:15:57;;;;;;;;;;;6.30;69.60;;;;;;5073253;28;19989;-69
2022/03/13 05:18:23;;;;;;;;;;;6.20;69.70;;;;;;5081780;28;19958;-69
2022/03/13 05:20:48;;;;;;;;;;;6.20;69.60;;;;;;5084916;28;19995;-69
2022/03/13 05:23:14;;;;;;;;;;;6.20;69.70;;;;;;5086801;28;20313;-69
2022/03/13 05:25:41;;;;;;;;;;;6.20;69.70;;;;;;5071778;28;19919;-69
2022/03/13 05:28:08;;;;;;;;;;;6.20;69.70;;;;;;5086408;28;19998;-69
2022/03/13 05:30:34;;;;;;;;;;;6.20;69.70;;;;;;5085068;28;19947;-69
2022/03/13 05:32:59;;;;;;;;;;;6.20;69.80;;;;;;5084342;28;19948;-69
2022/03/13 05:35:25;;;;;;;;;;;6.10;69.60;;;;;;5082088;28;19912;-69
2022/03/13 05:37:51;;;;;;;;;;;6.20;69.70;;;;;;5083204;28;20218;-69
2022/03/13 05:40:17;;;;;;;;;;;6.10;69.60;;;;;;5083715;28;19927;-69
2022/03/13 05:42:44;;;;;;;;;;;6.10;69.60;;;;;;5085993;28;19946;-69
2022/03/13 05:45:16;;;;;;;;;;;6.10;69.60;;;;;;5084180;28;21892;-69
2022/03/13 05:47:45;;;;;;;;;;;6.10;69.60;;;;;;5074144;28;19919;-69
2022/03/13 05:50:11;;;;;;;;;;;6.10;69.50;;;;;;5085419;28;19920;-69
2022/03/13 05:52:37;;;;;;;;;;;6.10;69.50;;;;;;5085462;28;20308;-69
2022/03/13 05:55:02;;;;;;;;;;;6.10;69.30;;;;;;5083716;28;20027;-69
2022/03/13 05:57:28;;;;;;;;;;;6.10;69.50;;;;;;5085031;28;20060;-69
2022/03/13 05:59:53;;;;;;;;;;;6.10;69.60;;;;;;5078340;28;19908;-69
2022/03/13 06:02:20;;;;;;;;;;;6.10;69.50;;;;;;5086033;28;19915;-69
2022/03/13 06:04:46;;;;;;;;;;;6.10;69.50;;;;;;5085651;28;19942;-69
2022/03/13 06:07:11;;;;;;;;;;;6.10;69.50;;;;;;5083088;28;20328;-69
2022/03/13 06:09:37;;;;;;;;;;;6.10;69.40;;;;;;5081699;28;19909;-69
2022/03/13 06:12:03;;;;;;;;;;;6.10;69.40;;;;;;5079954;28;19918;-69
2022/03/13 06:14:28;;;;;;;;;;;6.10;69.40;;;;;;5083777;28;20241;-69
2022/03/13 06:16:54;;;;;;;;;;;6.00;69.30;;;;;;5084853;28;19991;-69
2022/03/13 06:19:19;;;;;;;;;;;6.10;69.30;;;;;;5080796;28;20004;-69
2022/03/13 06:21:47;;;;;;;;;;;6.10;69.30;;;;;;5068522;28;19908;-69
2022/03/13 06:24:12;;;;;;;;;;;6.10;69.30;;;;;;5085624;28;19932;-69
2022/03/13 06:26:38;;;;;;;;;;;6.10;69.30;;;;;;5092695;28;20011;-69
2022/03/13 06:29:03;;;;;;;;;;;6.10;69.30;;;;;;5085014;28;20515;-69
2022/03/13 06:31:29;;;;;;;;;;;6.10;69.10;;;;;;5082736;28;19965;-69
2022/03/13 06:33:54;;;;;;;;;;;6.10;69.20;;;;;;5082722;28;20355;-69
2022/03/13 06:36:20;;;;;;;;;;;6.10;69.30;;;;;;5070885;28;19908;-69
2022/03/13 06:38:45;;;;;;;;;;;6.10;69.00;;;;;;5081826;28;19916;-69
2022/03/13 06:41:11;;;;;;;;;;;6.10;68.90;;;;;;5083145;28;19922;-69
2022/03/13 06:43:36;;;;;;;;;;;6.10;68.90;;;;;;5081312;28;19912;-69
2022/03/13 06:46:03;;;;;;;;;;;6.10;69.00;;;;;;5079564;28;19923;-69
2022/03/13 06:48:31;;;;;;;;;;;6.10;68.90;;;;;;5083869;28;19919;-69
2022/03/13 06:50:59;;;;;;;;;;;6.10;68.90;;;;;;5084383;28;19958;-69
2022/03/13 06:53:25;;;;;;;;;;;6.10;68.90;;;;;;5085012;28;20383;-69
2022/03/13 06:55:51;;;;;;;;;;;6.10;68.90;;;;;;5085290;28;19918;-69
2022/03/13 06:58:17;;;;;;;;;;;6.20;69.10;;;;;;5082219;28;20697;-69
2022/03/13 07:00:44;;;;;;;;;;;6.20;69.00;;;;;;5080865;28;19912;-69
2022/03/13 07:03:10;;;;;;;;;;;6.20;69.10;;;;;;5086085;28;19912;-69
2022/03/13 07:05:36;;;;;;;;;;;6.20;68.90;;;;;;5069623;28;19927;-69
2022/03/13 07:08:01;;;;;;;;;;;6.20;69.00;;;;;;5086160;28;19916;-69
2022/03/13 07:10:27;;;;;;;;;;;6.20;68.80;;;;;;5079554;28;19995;-69
2022/03/13 07:12:55;;;;;;;;;;;6.20;69.10;;;;;;5070781;28;20532;-69
2022/03/13 07:15:21;;;;;;;;;;;6.20;68.80;;;;;;5087915;28;19951;-69
2022/03/13 07:17:46;;;;;;;;;;;6.20;68.80;;;;;;5084422;28;20499;-69
2022/03/13 07:20:12;;;;;;;;;;;6.30;69.00;;;;;;5087098;28;19944;-69
2022/03/13 07:22:39;;;;;;;;;;;6.30;68.60;;;;;;5088069;28;20019;-69
2022/03/13 07:25:04;;;;;;;;;;;6.30;68.80;;;;;;5089262;28;20533;-69
2022/03/13 07:27:30;;;;;;;;;;;6.30;68.80;;;;;;5083166;28;19908;-69
2022/03/13 07:29:55;;;;;;;;;;;6.30;68.70;;;;;;5069341;28;20361;-69
2022/03/13 07:32:21;;;;;;;;;;;6.40;68.70;;;;;;5083503;28;20003;-69
2022/03/13 07:34:47;;;;;;;;;;;6.40;68.60;;;;;;5066993;28;19916;-69
2022/03/13 07:37:13;;;;;;;;;;;6.40;68.40;;;;;;5088982;28;19916;-69
2022/03/13 07:39:42;;;;;;;;;;;6.40;68.50;;;;;;5088173;28;19969;-69
2022/03/13 07:42:12;;;;;;;;;;;6.40;68.50;;;;;;5070607;28;20750;-69
2022/03/13 07:44:37;;;;;;;;;;;6.40;68.40;;;;;;5083546;28;19951;-69
2022/03/13 07:47:03;;;;;;;;;;;6.40;68.50;;;;;;5084339;28;19940;-69
2022/03/13 07:49:28;;;;;;;;;;;6.50;68.30;;;;;;5087087;28;20382;-69
2022/03/13 07:51:54;;;;;;;;;;;6.50;68.20;;;;;;5086869;28;20214;-69
2022/03/13 07:54:20;;;;;;;;;;;6.50;68.00;;;;;;5087734;28;19940;-68
2022/03/13 07:56:46;;;;;;;;;;;6.50;67.80;;;;;;5083675;28;19965;-69
2022/03/13 07:59:11;;;;;;;;;;;6.60;68.20;;;;;;5086298;28;20322;-68
2022/03/13 08:01:37;;;;;;;;;;;6.60;67.20;;;;;;5087252;28;19912;-68
2022/03/13 08:04:04;;;;;;;;;;;6.70;67.00;;;;;;5069834;28;19920;-68
2022/03/13 08:06:32;;;;;;;;;;;6.70;67.00;;;;;;5086962;28;19915;-68
2022/03/13 08:08:58;;;;;;;;;;;6.80;66.60;;;;;;5084393;28;19919;-68
2022/03/13 08:11:24;;;;;;;;;;;6.80;66.20;;;;;;5071814;28;19908;-69
2022/03/13 08:13:50;;;;;;;;;;;6.90;66.30;;;;;;5082471;28;20464;-68
2022/03/13 08:16:15;;;;;;;;;;;7.00;65.90;;;;;;5085987;28;20345;-69
2022/03/13 08:18:41;;;;;;;;;;;7.10;66.00;;;;;;5087079;28;19923;-68
2022/03/13 08:21:06;;;;;;;;;;;7.10;65.50;;;;;;5087720;28;20364;-68
2022/03/13 08:23:32;;;;;;;;;;;7.20;65.80;;;;;;5087385;28;19916;-68
2022/03/13 08:25:57;;;;;;;;;;;7.20;65.60;;;;;;5085897;28;20339;-69
2022/03/13 08:28:23;;;;;;;;;;;7.20;65.50;;;;;;5087016;28;19919;-68
2022/03/13 08:30:48;;;;;;;;;;;7.30;65.60;;;;;;5086404;28;19939;-69
2022/03/13 08:33:14;;;;;;;;;;;7.30;65.30;;;;;;5068295;28;19934;-68
2022/03/13 08:35:39;;;;;;;;;;;7.40;65.20;;;;;;5083679;28;19912;-68
2022/03/13 08:38:05;;;;;;;;;;;7.50;65.10;;;;;;5083290;28;19923;-68
2022/03/13 08:40:30;;;;;;;;;;;7.50;65.20;;;;;;5087486;28;19919;-68
2022/03/13 08:42:56;;;;;;;;;;;7.60;65.40;;;;;;5086856;28;19912;-68
2022/03/13 08:45:22;;;;;;;;;;;7.70;65.00;;;;;;5077311;28;19947;-68
2022/03/13 08:47:48;;;;;;;;;;;7.80;65.00;;;;;;5087034;28;19912;-69
2022/03/13 08:50:14;;;;;;;;;;;7.90;64.90;;;;;;5084527;28;20283;-69
2022/03/13 08:52:40;;;;;;;;;;;8.00;64.70;;;;;;5085094;28;19961;-68
2022/03/13 08:55:08;;;;;;;;;;;8.00;64.50;;;;;;5085628;28;19934;-68
2022/03/13 08:57:34;;;;;;;;;;;8.20;64.00;;;;;;5067637;28;19939;-68
2022/03/13 09:00:00;;;;;;;;;;;8.30;64.40;;;;;;5085037;28;19958;-69
2022/03/13 09:02:26;;;;;;;;;;;8.30;64.20;;;;;;5084816;28;19923;-68
2022/03/13 09:04:51;;;;;;;;;;;8.40;64.40;;;;;;5084937;28;19916;-68
2022/03/13 09:07:17;;;;;;;;;;;8.40;64.20;;;;;;5082871;28;19919;-68
2022/03/13 09:09:42;;;;;;;;;;;8.50;64.40;;;;;;5064437;28;19995;-68
2022/03/13 09:12:09;;;;;;;;;;;8.50;64.10;;;;;;5082122;28;19946;-68
2022/03/13 09:14:39;;;;;;;;;;;8.60;64.30;;;;;;5066010;28;19920;-68
2022/03/13 09:17:04;;;;;;;;;;;8.70;64.50;;;;;;5085301;28;19916;-68
2022/03/13 09:19:30;;;;;;;;;;;8.70;64.20;;;;;;5071865;28;19916;-68
2022/03/13 09:21:55;;;;;;;;;;;8.80;64.40;;;;;;5085579;28;20017;-68
2022/03/13 09:24:21;;;;;;;;;;;8.80;64.10;;;;;;5085094;28;20026;-69
2022/03/13 09:26:47;;;;;;;;;;;8.90;63.80;;;;;;5080339;28;19918;-68
2022/03/13 09:29:12;;;;;;;;;;;9.00;63.90;;;;;;5081238;28;19969;-68
2022/03/13 09:31:39;;;;;;;;;;;9.10;64.00;;;;;;5080202;28;19916;-68
2022/03/13 09:34:05;;;;;;;;;;;9.10;63.80;;;;;;5083061;28;19912;-68
2022/03/13 09:36:30;;;;;;;;;;;9.20;63.80;;;;;;5085810;28;19933;-68
2022/03/13 09:38:56;;;;;;;;;;;9.20;63.90;;;;;;5085405;28;19942;-68
2022/03/13 09:41:21;;;;;;;;;;;9.30;63.60;;;;;;5083700;28;19953;-68
2022/03/13 09:43:47;;;;;;;;;;;9.40;63.60;;;;;;5069869;28;19916;-68
2022/03/13 09:46:16;;;;;;;;;;;9.40;63.50;;;;;;5085417;28;20415;-68
2022/03/13 09:48:42;;;;;;;;;;;9.50;63.20;;;;;;5080814;28;20091;-68
2022/03/13 09:51:09;;;;;;;;;;;9.60;63.20;;;;;;5079460;28;19915;-68
2022/03/13 09:53:35;;;;;;;;;;;9.60;63.20;;;;;;5084119;28;19912;-68
2022/03/13 09:56:03;;;;;;;;;;;9.70;63.40;;;;;;5084070;28;20003;-68
2022/03/13 09:58:29;;;;;;;;;;;9.70;63.10;;;;;;5080797;28;19920;-68
2022/03/13 10:00:56;;;;;;;;;;;9.80;63.10;;;;;;5083748;28;20527;-68
2022/03/13 10:03:21;;;;;;;;;;;9.80;63.10;;;;;;5072595;28;19966;-69
2022/03/13 10:05:48;;;;;;;;;;;9.80;62.90;;;;;;5083452;28;20597;-68
2022/03/13 10:08:14;;;;;;;;;;;9.90;62.90;;;;;;5081804;28;20015;-68
2022/03/13 10:10:44;;;;;;;;;;;9.90;63.70;;;;;;5083138;28;20003;-68
2022/03/13 10:13:10;;;;;;;;;;;9.90;62.90;;;;;;5081928;28;20896;-68
2022/03/13 10:15:43;;;;;;;;;;;10.00;62.90;;;;;;5084792;28;20665;-69
2022/03/13 10:18:15;;;;;;;;;;;10.00;62.80;;;;;;5085496;28;20277;-69
2022/03/13 10:20:41;;;;;;;;;;;10.10;62.80;;;;;;5071811;28;19919;-69
2022/03/13 10:23:10;;;;;;;;;;;10.10;62.80;;;;;;5081469;28;20548;-69
2022/03/13 10:25:38;;;;;;;;;;;10.20;62.90;;;;;;5083418;28;20726;-69
2022/03/13 10:28:12;;;;;;;;;;;10.30;62.70;;;;;;5074099;28;19916;-69
2022/03/13 10:30:38;;;;;;;;;;;10.30;62.80;;;;;;5084751;28;20048;-69
2022/03/13 10:33:05;;;;;;;;;;;10.40;62.70;;;;;;5083779;28;19924;-69
2022/03/13 10:35:31;;;;;;;;;;;10.40;62.80;;;;;;5083297;28;19912;-69
2022/03/13 10:37:56;;;;;;;;;;;10.50;62.70;;;;;;5082213;28;19908;-69
2022/03/13 10:40:23;;;;;;;;;;;10.50;62.60;;;;;;5069427;28;20371;-69
2022/03/13 10:42:50;;;;;;;;;;;10.60;62.60;;;;;;5081364;28;19913;-68
2022/03/13 10:45:36;;;;;;;;;;;10.60;62.60;;;;;;5081672;28;20384;-68
2022/03/13 10:48:22;;;;;;;;;;;10.70;62.70;;;;;;5083262;28;19912;-68
2022/03/13 10:50:50;;;;;;;;;;;10.70;62.70;;;;;;5082394;28;20638;-68
2022/03/13 10:53:16;;;;;;;;;;;10.70;62.60;;;;;;5083506;28;19912;-68
2022/03/13 10:55:42;;;;;;;;;;;10.80;62.90;;;;;;5082054;28;20726;-69
2022/03/13 10:58:07;;;;;;;;;;;10.80;62.80;;;;;;5080397;28;19935;-68
2022/03/13 11:00:34;;;;;;;;;;;10.80;63.20;;;;;;5081811;28;20248;-68
2022/03/13 11:03:10;;;;;;;;;;;10.80;63.20;;;;;;5083564;28;19908;-69
2022/03/13 11:05:36;;;;;;;;;;;10.90;63.10;;;;;;5084370;28;19966;-68
2022/03/13 11:08:03;;;;;;;;;;;11.00;63.10;;;;;;5083151;28;19912;-68
2022/03/13 11:10:29;;;;;;;;;;;11.10;63.20;;;;;;5065457;28;19959;-68
2022/03/13 11:12:57;;;;;;;;;;;11.20;63.10;;;;;;5067695;28;19954;-68
2022/03/13 11:15:23;;;;;;;;;;;11.20;63.10;;;;;;5083997;28;19916;-68
2022/03/13 11:17:48;;;;;;;;;;;11.40;63.20;;;;;;5066004;28;20281;-68
2022/03/13 11:20:15;;;;;;;;;;;11.40;62.90;;;;;;5081705;28;19916;-68
2022/03/13 11:22:40;;;;;;;;;;;11.60;63.10;;;;;;5080746;28;19909;-68
2022/03/13 11:25:07;;;;;;;;;;;11.60;63.00;;;;;;5088325;28;19916;-68
2022/03/13 11:27:35;;;;;;;;;;;11.80;63.00;;;;;;5084178;28;19912;-68
2022/03/13 11:30:00;;;;;;;;;;;11.90;62.80;;;;;;5082184;28;19916;-68
2022/03/13 11:32:42;;;;;;;;;;;12.00;62.80;;;;;;5070125;28;20362;-68
2022/03/13 11:35:11;;;;;;;;;;;12.20;62.70;;;;;;5076020;28;19912;-68
2022/03/13 11:37:37;;;;;;;;;;;12.30;62.30;;;;;;5078631;28;20401;-68
2022/03/13 11:40:05;;;;;;;;;;;12.40;62.20;;;;;;5083368;28;19915;-68
2022/03/13 11:42:50;;;;;;;;;;;12.50;62.60;;;;;;5080610;28;19920;-68
2022/03/13 11:45:33;;;;;;;;;;;12.60;62.40;;;;;;5082824;28;19920;-68
2022/03/13 11:48:14;;;;;;;;;;;12.60;62.60;;;;;;5083155;28;20084;-68
2022/03/13 11:50:50;;;;;;;;;;;12.70;63.30;;;;;;5074928;28;19908;-68
2022/03/13 11:53:16;;;;;;;;;;;12.70;63.10;;;;;;5085197;28;19923;-68
2022/03/13 11:55:57;;;;;;;;;;;12.80;63.20;;;;;;5085150;28;19912;-68
2022/03/13 11:58:35;;;;;;;;;;;12.90;63.50;;;;;;5087418;28;19980;-68
2022/03/13 12:01:07;;;;;;;;;;;13.00;63.70;;;;;;5082460;28;20388;-69
2022/03/13 12:03:32;;;;;;;;;;;13.00;63.00;;;;;;5087637;28;19921;-69
2022/03/13 12:05:59;;;;;;;;;;;13.20;62.70;;;;;;5072883;28;19920;-69
2022/03/13 12:08:45;;;;;;;;;;;13.30;63.10;;;;;;5086724;28;20359;-69
2022/03/13 12:11:29;;;;;;;;;;;13.30;63.00;;;;;;5083891;28;19912;-69
2022/03/13 12:13:56;;;;;;;;;;;13.50;62.70;;;;;;5069532;28;19935;-69
2022/03/13 12:16:21;;;;;;;;;;;13.50;62.80;;;;;;5085771;28;19912;-69
2022/03/13 12:18:56;;;;;;;;;;;13.60;63.00;;;;;;5088032;28;19916;-69
2022/03/13 12:21:22;;;;;;;;;;;13.70;62.90;;;;;;5086184;28;19999;-69
2022/03/13 12:23:48;;;;;;;;;;;13.70;62.80;;;;;;5086220;28;19920;-69
2022/03/13 12:26:18;;;;;;;;;;;13.80;62.50;;;;;;5085140;28;19912;-69
2022/03/13 12:28:44;;;;;;;;;;;13.90;62.80;;;;;;5086159;28;19912;-69
2022/03/13 12:31:09;;;;;;;;;;;13.90;62.50;;;;;;5063514;28;19912;-69
2022/03/13 12:33:42;;;;;;;;;;;14.00;62.40;;;;;;5084516;28;19923;-69
2022/03/13 12:36:08;;;;;;;;;;;14.10;62.50;;;;;;5083651;28;19915;-69
2022/03/13 12:38:33;;;;;;;;;;;14.10;62.70;;;;;;5083026;28;20545;-69
2022/03/13 12:41:01;;;;;;;;;;;14.20;62.80;;;;;;5073582;28;19910;-69
2022/03/13 12:43:46;;;;;;;;;;;14.20;62.60;;;;;;5077941;28;19924;-69
2022/03/13 12:46:13;;;;;;;;;;;14.30;62.30;;;;;;5086699;28;19916;-69
2022/03/13 12:48:38;;;;;;;;;;;14.30;62.60;;;;;;5084557;28;19916;-69
2022/03/13 12:51:04;;;;;;;;;;;14.30;62.50;;;;;;5082622;28;19912;-69
2022/03/13 12:53:31;;;;;;;;;;;14.40;62.50;;;;;;5084374;28;19908;-69
2022/03/13 12:55:57;;;;;;;;;;;14.40;62.60;;;;;;5085505;28;19923;-69
2022/03/13 12:58:40;;;;;;;;;;;14.40;62.50;;;;;;5086474;28;19916;-69
2022/03/13 13:01:16;;;;;;;;;;;14.50;62.70;;;;;;5082036;28;19998;-69
2022/03/13 13:03:52;;;;;;;;;;;14.50;63.10;;;;;;5077775;28;19912;-69
2022/03/13 13:06:47;;;;;;;;;;;14.50;62.80;;;;;;5086865;28;19947;-69
2022/03/13 13:09:24;;;;;;;;;;;14.50;62.70;;;;;;5057156;28;20422;-69
2022/03/13 13:11:51;;;;;;;;;;;14.60;62.90;;;;;;5085456;28;20295;-69
2022/03/13 13:14:21;;;;;;;;;;;14.60;62.90;;;;;;5085166;28;20435;-69
2022/03/13 13:16:47;;;;;;;;;;;14.70;62.80;;;;;;5085917;28;20527;-69
2022/03/13 13:19:12;;;;;;;;;;;14.70;63.00;;;;;;5083888;28;20009;-69
2022/03/13 13:21:42;;;;;;;;;;;14.70;62.90;;;;;;5082331;28;19916;-69
2022/03/13 13:24:21;;;;;;;;;;;14.80;63.40;;;;;;5083146;28;19919;-69
2022/03/13 13:26:47;;;;;;;;;;;14.80;63.30;;;;;;5085416;28;19931;-69
2022/03/13 13:29:12;;;;;;;;;;;14.80;62.50;;;;;;5084611;28;19916;-69
2022/03/13 13:31:38;;;;;;;;;;;14.90;62.80;;;;;;5085292;28;19999;-69
2022/03/13 13:34:16;;;;;;;;;;;14.90;62.50;;;;;;5084787;28;19916;-70
2022/03/13 13:36:42;;;;;;;;;;;14.90;62.10;;;;;;5080049;28;20014;-69
2022/03/13 13:39:08;;;;;;;;;;;15.00;62.20;;;;;;5084135;28;20569;-70
2022/03/13 13:41:34;;;;;;;;;;;15.00;62.10;;;;;;5082389;28;19916;-69
2022/03/13 13:44:00;;;;;;;;;;;15.00;62.40;;;;;;5084411;28;20027;-69
2022/03/13 13:46:29;;;;;;;;;;;15.00;62.70;;;;;;5089763;28;19979;-69
2022/03/13 13:48:54;;;;;;;;;;;15.00;62.50;;;;;;5084760;28;19923;-69
2022/03/13 13:51:29;;;;;;;;;;;15.10;62.60;;;;;;5083260;28;19913;-69
2022/03/13 13:54:10;;;;;;;;;;;15.10;62.90;;;;;;5078891;28;20006;-69
2022/03/13 13:56:38;;;;;;;;;;;15.10;62.70;;;;;;5086195;28;19923;-70
2022/03/13 13:59:13;;;;;;;;;;;15.10;62.60;;;;;;5083870;28;20007;-70
2022/03/13 14:01:39;;;;;;;;;;;15.20;62.70;;;;;;5085013;28;20390;-70
2022/03/13 14:04:04;;;;;;;;;;;15.20;62.60;;;;;;5080861;28;19916;-70
2022/03/13 14:06:35;;;;;;;;;;;15.20;63.00;;;;;;5068776;28;20272;-69
2022/03/13 14:09:01;;;;;;;;;;;15.20;62.70;;;;;;5083839;28;19927;-69
2022/03/13 14:11:27;;;;;;;;;;;15.20;62.70;;;;;;5084245;28;19931;-70
2022/03/13 14:13:52;;;;;;;;;;;15.30;62.60;;;;;;5085271;28;20268;-70
2022/03/13 14:16:19;;;;;;;;;;;15.30;62.70;;;;;;5084288;28;20355;-69
2022/03/13 14:18:46;;;;;;;;;;;15.30;62.70;;;;;;5084154;28;19919;-70
2022/03/13 14:21:12;;;;;;;;;;;15.30;62.90;;;;;;5083027;28;19912;-70
2022/03/13 14:23:37;;;;;;;;;;;15.30;62.80;;;;;;5066154;28;19916;-70
2022/03/13 14:26:03;;;;;;;;;;;15.30;63.00;;;;;;5075063;28;19908;-70